Time;durP1;ratioP1;P1;durP2;ratioP2;P2;SDS_P1;SDS_P2;PMS_P1;PMS_P2;Temp;Humidity;BMP_temperature;BMP_pressure;BME280_temperature;BME280_humidity;BME280_pressure;Samples;Min_cycle;Max_cycle;Signal;HPM_P1;HPM_P2
2022/11/29 00:01:57;;;;;;;;;;;9.60;99.90;;;;;;5054291;28;19909;-83
2022/11/29 00:04:22;;;;;;;;;;;9.60;99.90;;;;;;5054734;28;20290;-83
2022/11/29 00:06:48;;;;;;;;;;;9.70;99.90;;;;;;5054627;28;20015;-83
2022/11/29 00:09:13;;;;;;;;;;;9.70;99.90;;;;;;5054514;28;19984;-83
2022/11/29 00:14:24;;;;;;;;;;;9.80;99.90;;;;;;5056098;28;19955;-83
2022/11/29 00:16:51;;;;;;;;;;;9.80;99.90;;;;;;5054505;28;19983;-84
2022/11/29 00:19:17;;;;;;;;;;;9.90;99.90;;;;;;5054712;28;19936;-83
2022/11/29 00:21:42;;;;;;;;;;;9.90;99.90;;;;;;5054087;28;19936;-83
2022/11/29 00:24:08;;;;;;;;;;;9.90;99.90;;;;;;5054205;28;20259;-83
2022/11/29 00:26:35;;;;;;;;;;;10.00;99.90;;;;;;5055381;28;20390;-83
2022/11/29 00:29:01;;;;;;;;;;;10.00;99.90;;;;;;5053977;28;19920;-83
2022/11/29 00:31:31;;;;;;;;;;;10.00;99.90;;;;;;5054990;28;19908;-83
2022/11/29 00:33:57;;;;;;;;;;;10.10;99.90;;;;;;5053964;28;19917;-83
2022/11/29 00:36:23;;;;;;;;;;;10.10;99.90;;;;;;5053877;28;20367;-83
2022/11/29 00:38:48;;;;;;;;;;;10.10;99.90;;;;;;5055176;28;19962;-83
2022/11/29 00:41:14;;;;;;;;;;;10.00;99.90;;;;;;5053586;28;19955;-84
2022/11/29 00:43:40;;;;;;;;;;;10.10;99.90;;;;;;5053175;28;20281;-84
2022/11/29 00:46:05;;;;;;;;;;;10.10;99.90;;;;;;5053461;28;19909;-84
2022/11/29 00:48:31;;;;;;;;;;;10.10;99.90;;;;;;5055017;28;20370;-83
2022/11/29 00:50:57;;;;;;;;;;;10.10;99.90;;;;;;5053357;28;19917;-83
2022/11/29 00:53:22;;;;;;;;;;;10.10;99.90;;;;;;5055111;28;19909;-83
2022/11/29 00:55:48;;;;;;;;;;;10.10;99.90;;;;;;5053497;28;19909;-84
2022/11/29 00:58:14;;;;;;;;;;;10.20;99.90;;;;;;5054796;28;19909;-84
2022/11/29 01:00:39;;;;;;;;;;;10.20;99.90;;;;;;5053300;28;20373;-83
2022/11/29 01:03:05;;;;;;;;;;;10.20;99.90;;;;;;5053250;28;19909;-83
2022/11/29 01:05:30;;;;;;;;;;;10.20;99.90;;;;;;5053424;28;19909;-83
2022/11/29 01:07:56;;;;;;;;;;;10.20;99.90;;;;;;5054689;28;19913;-83
2022/11/29 01:10:21;;;;;;;;;;;10.20;99.90;;;;;;5053200;28;20428;-83
2022/11/29 01:12:47;;;;;;;;;;;10.20;99.90;;;;;;5054325;28;19944;-82
2022/11/29 01:15:12;;;;;;;;;;;10.20;99.90;;;;;;5054607;28;20471;-83
2022/11/29 01:17:38;;;;;;;;;;;10.20;99.90;;;;;;5053238;28;19909;-83
2022/11/29 01:20:05;;;;;;;;;;;10.30;99.90;;;;;;5053031;28;20266;-83
2022/11/29 01:22:30;;;;;;;;;;;10.30;99.90;;;;;;5052617;28;19915;-83
2022/11/29 01:24:56;;;;;;;;;;;10.30;99.90;;;;;;5053062;28;20258;-83
2022/11/29 01:27:21;;;;;;;;;;;10.20;99.90;;;;;;5052949;28;19912;-83
2022/11/29 01:29:47;;;;;;;;;;;10.10;99.90;;;;;;5053250;28;20377;-84
2022/11/29 01:32:12;;;;;;;;;;;10.10;99.90;;;;;;5053906;28;19999;-84
2022/11/29 01:34:38;;;;;;;;;;;10.00;99.90;;;;;;5056818;28;20373;-83
2022/11/29 01:37:04;;;;;;;;;;;10.00;99.90;;;;;;5074049;28;20339;-83
2022/11/29 01:39:29;;;;;;;;;;;10.10;99.90;;;;;;5074023;28;20365;-83
2022/11/29 01:41:55;;;;;;;;;;;10.00;99.90;;;;;;5072214;28;19909;-84
2022/11/29 01:44:21;;;;;;;;;;;10.10;99.90;;;;;;5072520;28;20334;-83
2022/11/29 01:46:47;;;;;;;;;;;10.10;99.90;;;;;;5072438;28;20331;-83
2022/11/29 01:49:12;;;;;;;;;;;10.10;99.90;;;;;;5073738;28;19920;-83
2022/11/29 01:51:39;;;;;;;;;;;10.20;99.90;;;;;;5073365;28;20276;-83
2022/11/29 01:54:05;;;;;;;;;;;10.20;99.90;;;;;;5073648;28;19912;-83
2022/11/29 01:56:32;;;;;;;;;;;10.30;99.90;;;;;;5073538;28;20281;-83
2022/11/29 01:59:00;;;;;;;;;;;10.30;99.90;;;;;;5072289;28;19997;-83
2022/11/29 02:01:25;;;;;;;;;;;10.20;99.90;;;;;;5073173;28;20050;-83
2022/11/29 02:03:52;;;;;;;;;;;10.20;99.90;;;;;;5072088;28;19944;-84
2022/11/29 02:06:17;;;;;;;;;;;10.20;99.90;;;;;;5072121;28;20266;-83
2022/11/29 02:08:43;;;;;;;;;;;10.30;99.90;;;;;;5072054;28;19913;-83
2022/11/29 02:11:18;;;;;;;;;;;10.30;99.90;;;;;;5071615;28;20104;-83
2022/11/29 02:13:43;;;;;;;;;;;10.20;99.90;;;;;;5073232;28;19916;-83
2022/11/29 02:16:19;;;;;;;;;;;10.20;99.90;;;;;;5072033;28;19916;-84
2022/11/29 02:19:03;;;;;;;;;;;10.10;99.90;;;;;;5073375;28;19952;-83
2022/11/29 02:21:47;;;;;;;;;;;10.20;99.90;;;;;;5072781;28;19909;-84
2022/11/29 02:24:26;;;;;;;;;;;10.20;99.90;;;;;;5073225;28;19957;-83
2022/11/29 02:26:51;;;;;;;;;;;10.20;99.90;;;;;;5073035;28;19958;-83
2022/11/29 02:29:29;;;;;;;;;;;10.20;99.90;;;;;;5071710;28;20369;-83
2022/11/29 02:32:14;;;;;;;;;;;10.20;99.90;;;;;;5072834;28;20361;-83
2022/11/29 02:34:39;;;;;;;;;;;10.20;99.90;;;;;;5073114;28;19912;-84
2022/11/29 02:37:22;;;;;;;;;;;10.30;99.90;;;;;;5071686;28;19928;-83
2022/11/29 02:40:09;;;;;;;;;;;10.30;99.90;;;;;;5071796;28;19931;-83
2022/11/29 02:42:53;;;;;;;;;;;10.30;99.90;;;;;;5072765;28;19908;-84
2022/11/29 02:45:37;;;;;;;;;;;10.30;99.90;;;;;;5073109;28;19912;-83
2022/11/29 02:48:22;;;;;;;;;;;10.40;99.90;;;;;;5071484;28;19916;-83
2022/11/29 02:50:53;;;;;;;;;;;10.40;99.90;;;;;;5071483;28;19935;-83
2022/11/29 02:53:27;;;;;;;;;;;10.40;99.90;;;;;;5072571;28;19912;-83
2022/11/29 02:56:11;;;;;;;;;;;10.30;99.90;;;;;;5071619;28;20262;-83
2022/11/29 02:58:42;;;;;;;;;;;10.30;99.90;;;;;;5071614;28;19909;-83
2022/11/29 03:01:28;;;;;;;;;;;10.30;99.90;;;;;;5072335;28;19908;-83
2022/11/29 03:04:02;;;;;;;;;;;10.30;99.90;;;;;;5071364;28;19908;-83
2022/11/29 03:06:28;;;;;;;;;;;10.30;99.90;;;;;;5071354;28;19915;-83
2022/11/29 03:08:53;;;;;;;;;;;10.20;99.90;;;;;;5074599;28;20397;-83
2022/11/29 03:11:35;;;;;;;;;;;10.20;99.90;;;;;;5075361;28;19934;-83
2022/11/29 03:14:07;;;;;;;;;;;10.20;99.90;;;;;;5075643;28;20444;-83
2022/11/29 03:16:41;;;;;;;;;;;10.20;99.90;;;;;;5075387;28;19912;-84
2022/11/29 03:19:10;;;;;;;;;;;10.20;99.90;;;;;;5075370;28;20380;-83
2022/11/29 03:21:35;;;;;;;;;;;10.20;99.90;;;;;;5075010;28;19939;-83
2022/11/29 03:24:05;;;;;;;;;;;10.10;99.90;;;;;;5076640;28;20348;-83
2022/11/29 03:26:34;;;;;;;;;;;10.20;99.90;;;;;;5076575;28;19909;-83
2022/11/29 03:29:15;;;;;;;;;;;10.20;99.90;;;;;;5075238;28;19913;-83
2022/11/29 03:31:48;;;;;;;;;;;10.10;99.90;;;;;;5074870;28;20430;-83
2022/11/29 03:34:29;;;;;;;;;;;10.20;99.90;;;;;;5076446;28;19908;-84
2022/11/29 03:36:59;;;;;;;;;;;10.20;99.90;;;;;;5075066;28;19909;-83
2022/11/29 03:39:48;;;;;;;;;;;10.20;99.90;;;;;;5076372;28;19924;-83
2022/11/29 03:42:17;;;;;;;;;;;10.10;99.90;;;;;;5074554;28;19934;-83
2022/11/29 03:44:51;;;;;;;;;;;10.00;99.90;;;;;;5075032;28;19916;-84
2022/11/29 03:47:22;;;;;;;;;;;10.00;99.90;;;;;;5073680;28;19913;-84
2022/11/29 03:49:51;;;;;;;;;;;9.90;99.90;;;;;;5074808;28;19916;-83
2022/11/29 03:52:26;;;;;;;;;;;10.00;99.90;;;;;;5074242;28;19920;-84
2022/11/29 03:55:00;;;;;;;;;;;10.00;99.90;;;;;;5074797;28;19909;-84
2022/11/29 03:57:33;;;;;;;;;;;10.10;99.90;;;;;;5074612;28;20326;-83
2022/11/29 04:00:06;;;;;;;;;;;10.10;99.90;;;;;;5075759;28;19919;-84
2022/11/29 04:02:40;;;;;;;;;;;10.20;99.90;;;;;;5075512;28;19969;-83
2022/11/29 04:05:15;;;;;;;;;;;10.10;99.90;;;;;;5075840;28;19909;-84
2022/11/29 04:07:48;;;;;;;;;;;10.10;99.90;;;;;;5074378;28;19917;-84
2022/11/29 04:10:14;;;;;;;;;;;10.20;99.90;;;;;;5074435;28;19924;-83
2022/11/29 04:12:51;;;;;;;;;;;10.20;99.90;;;;;;5075997;28;20309;-84
2022/11/29 04:15:22;;;;;;;;;;;10.30;99.90;;;;;;5077161;28;19916;-84
2022/11/29 04:17:48;;;;;;;;;;;10.20;99.90;;;;;;5074460;28;19909;-84
2022/11/29 04:20:16;;;;;;;;;;;10.20;99.90;;;;;;5075929;28;19961;-85
2022/11/29 04:22:44;;;;;;;;;;;10.30;99.90;;;;;;5074265;28;19916;-83
2022/11/29 04:25:10;;;;;;;;;;;10.20;99.90;;;;;;5074784;28;19909;-85
2022/11/29 04:27:41;;;;;;;;;;;10.30;99.90;;;;;;5074845;28;20430;-83
2022/11/29 04:30:07;;;;;;;;;;;10.30;99.90;;;;;;5074245;28;19915;-84
2022/11/29 04:32:32;;;;;;;;;;;10.30;99.90;;;;;;5074231;28;19908;-83
2022/11/29 04:35:08;;;;;;;;;;;10.30;99.90;;;;;;5075767;28;19923;-83
2022/11/29 04:37:53;;;;;;;;;;;10.30;99.90;;;;;;5076972;28;20404;-83
2022/11/29 04:40:21;;;;;;;;;;;10.30;99.90;;;;;;5074933;28;19912;-83
2022/11/29 04:42:52;;;;;;;;;;;10.30;99.90;;;;;;5085953;28;19908;-85
2022/11/29 04:45:20;;;;;;;;;;;10.30;99.90;;;;;;5089823;28;19944;-86
2022/11/29 04:47:55;;;;;;;;;;;10.10;99.90;;;;;;5085274;28;19912;-86
2022/11/29 04:50:29;;;;;;;;;;;10.10;99.90;;;;;;5086412;28;19909;-86
2022/11/29 04:52:55;;;;;;;;;;;9.90;99.90;;;;;;5103287;22;20009;-82
2022/11/29 04:55:20;;;;;;;;;;;9.80;99.90;;;;;;5094819;28;19946;-82
2022/11/29 04:58:04;;;;;;;;;;;9.90;99.90;;;;;;5093685;28;19908;-82
2022/11/29 05:00:33;;;;;;;;;;;9.90;99.90;;;;;;5095600;28;19909;-82
2022/11/29 05:03:05;;;;;;;;;;;9.80;99.90;;;;;;5094461;28;20388;-83
2022/11/29 05:05:30;;;;;;;;;;;9.80;99.90;;;;;;5095470;28;19981;-83
2022/11/29 05:08:25;;;;;;;;;;;9.80;99.90;;;;;;5095252;28;19920;-83
2022/11/29 05:10:59;;;;;;;;;;;9.80;99.90;;;;;;5017908;28;19909;-82
2022/11/29 05:13:36;;;;;;;;;;;9.80;99.90;;;;;;5081280;28;19915;-83
2022/11/29 05:16:20;;;;;;;;;;;9.80;99.90;;;;;;5094628;28;19914;-83
2022/11/29 05:19:04;;;;;;;;;;;9.90;99.90;;;;;;5093107;28;19957;-83
2022/11/29 05:21:40;;;;;;;;;;;9.80;99.90;;;;;;5094049;28;19909;-83
2022/11/29 05:24:16;;;;;;;;;;;9.80;99.90;;;;;;5094640;28;20387;-82
2022/11/29 05:27:00;;;;;;;;;;;9.80;99.90;;;;;;5093128;28;19973;-83
2022/11/29 05:29:32;;;;;;;;;;;9.70;99.90;;;;;;5094156;28;19912;-82
2022/11/29 05:32:21;;;;;;;;;;;9.80;99.90;;;;;;5094495;28;19910;-82
2022/11/29 05:35:02;;;;;;;;;;;9.80;99.90;;;;;;5094831;28;19915;-83
2022/11/29 05:37:28;;;;;;;;;;;9.80;99.90;;;;;;5093827;28;19908;-82
2022/11/29 05:40:02;;;;;;;;;;;9.70;99.90;;;;;;5094095;28;19908;-83
2022/11/29 05:42:36;;;;;;;;;;;9.70;99.90;;;;;;5093986;28;19916;-83
2022/11/29 05:45:02;;;;;;;;;;;9.70;99.90;;;;;;5093407;28;19911;-82
2022/11/29 05:47:47;;;;;;;;;;;9.70;99.90;;;;;;5089508;28;19969;-83
2022/11/29 05:50:17;;;;;;;;;;;9.70;99.90;;;;;;5055686;28;19915;-82
2022/11/29 05:52:58;;;;;;;;;;;9.70;99.90;;;;;;5072968;28;19946;-83
2022/11/29 05:55:46;;;;;;;;;;;9.70;99.90;;;;;;5072330;28;19913;-82
2022/11/29 05:58:12;;;;;;;;;;;9.60;99.90;;;;;;5072184;28;19908;-82
2022/11/29 06:01:06;;;;;;;;;;;9.70;99.90;;;;;;5072745;28;20280;-82
2022/11/29 06:03:32;;;;;;;;;;;9.70;99.90;;;;;;5063852;28;19987;-83
2022/11/29 06:06:01;;;;;;;;;;;9.80;99.90;;;;;;5073278;28;19908;-82
2022/11/29 06:08:30;;;;;;;;;;;9.80;99.90;;;;;;5072488;28;19912;-82
2022/11/29 06:11:01;;;;;;;;;;;9.70;99.90;;;;;;5073158;28;19909;-83
2022/11/29 06:13:36;;;;;;;;;;;9.70;99.90;;;;;;5073223;28;19909;-84
2022/11/29 06:16:01;;;;;;;;;;;9.70;99.90;;;;;;5073237;28;20007;-83
2022/11/29 06:18:35;;;;;;;;;;;9.60;99.90;;;;;;5073603;28;20382;-83
2022/11/29 06:21:13;;;;;;;;;;;9.60;99.90;;;;;;5072896;28;19909;-83
2022/11/29 06:23:41;;;;;;;;;;;9.60;99.90;;;;;;5073329;28;19999;-82
2022/11/29 06:26:10;;;;;;;;;;;9.50;99.90;;;;;;5074061;28;20258;-83
2022/11/29 06:28:47;;;;;;;;;;;9.50;99.90;;;;;;5071762;28;19913;-83
2022/11/29 06:31:28;;;;;;;;;;;9.50;99.90;;;;;;5072893;28;19908;-83
2022/11/29 06:33:57;;;;;;;;;;;9.50;99.90;;;;;;5072882;28;19943;-82
2022/11/29 06:36:29;;;;;;;;;;;9.60;99.90;;;;;;5071782;28;19998;-83
2022/11/29 06:38:54;;;;;;;;;;;9.60;99.90;;;;;;5073593;28;19909;-83
2022/11/29 06:41:21;;;;;;;;;;;9.60;99.90;;;;;;5072431;28;19990;-82
2022/11/29 06:43:47;;;;;;;;;;;9.50;99.90;;;;;;5071430;28;19908;-83
2022/11/29 06:46:16;;;;;;;;;;;9.60;99.90;;;;;;5072783;28;20045;-84
2022/11/29 06:48:45;;;;;;;;;;;9.70;99.90;;;;;;5072659;28;20027;-84
2022/11/29 06:51:26;;;;;;;;;;;9.70;99.90;;;;;;5073502;28;19950;-83
2022/11/29 06:54:18;;;;;;;;;;;9.80;99.90;;;;;;5072619;28;19923;-83
2022/11/29 06:56:59;;;;;;;;;;;9.80;99.90;;;;;;5072636;28;19915;-83
2022/11/29 06:59:33;;;;;;;;;;;9.80;99.90;;;;;;5071275;28;20019;-83
2022/11/29 07:02:03;;;;;;;;;;;9.90;99.90;;;;;;5072327;28;19913;-82
2022/11/29 07:04:28;;;;;;;;;;;9.90;99.90;;;;;;5071623;28;19912;-83
2022/11/29 07:06:54;;;;;;;;;;;9.80;99.90;;;;;;5072634;28;20413;-82
2022/11/29 07:09:21;;;;;;;;;;;9.80;99.90;;;;;;5071252;28;19912;-83
2022/11/29 07:11:47;;;;;;;;;;;9.80;99.90;;;;;;5072239;28;19916;-83
2022/11/29 07:14:12;;;;;;;;;;;9.70;99.90;;;;;;5072545;28;19909;-82
2022/11/29 07:16:54;;;;;;;;;;;9.90;99.90;;;;;;5072812;28;19913;-83
2022/11/29 07:19:35;;;;;;;;;;;9.80;99.90;;;;;;5073005;28;19916;-85
2022/11/29 07:22:21;;;;;;;;;;;9.80;99.90;;;;;;5083103;28;20343;-83
2022/11/29 07:25:01;;;;;;;;;;;9.80;99.90;;;;;;5090893;28;19930;-84
2022/11/29 07:27:26;;;;;;;;;;;9.80;99.90;;;;;;5091086;28;19961;-84
2022/11/29 07:30:04;;;;;;;;;;;9.90;99.90;;;;;;5092462;28;19909;-84
2022/11/29 07:32:45;;;;;;;;;;;9.90;99.90;;;;;;5091962;28;19908;-84
2022/11/29 07:35:29;;;;;;;;;;;10.00;99.90;;;;;;5092301;28;19908;-84
2022/11/29 07:38:08;;;;;;;;;;;10.00;99.90;;;;;;5092392;28;19915;-83
2022/11/29 07:40:52;;;;;;;;;;;10.00;99.90;;;;;;5091422;28;19915;-83
2022/11/29 07:43:37;;;;;;;;;;;10.00;99.90;;;;;;5090948;28;19973;-84
2022/11/29 07:46:02;;;;;;;;;;;10.00;99.90;;;;;;5092222;28;19908;-84
2022/11/29 07:48:28;;;;;;;;;;;9.90;99.90;;;;;;5091036;28;20342;-83
2022/11/29 07:50:54;;;;;;;;;;;10.00;99.90;;;;;;5091963;28;19908;-83
2022/11/29 07:53:20;;;;;;;;;;;9.90;99.90;;;;;;5091491;28;19920;-84
2022/11/29 07:55:46;;;;;;;;;;;9.90;99.90;;;;;;5096315;28;19953;-84
2022/11/29 07:58:13;;;;;;;;;;;9.90;99.90;;;;;;5096073;28;19909;-84
2022/11/29 08:00:40;;;;;;;;;;;10.00;99.90;;;;;;5096134;28;20400;-84
2022/11/29 08:03:06;;;;;;;;;;;10.00;99.90;;;;;;5094121;28;19908;-83
2022/11/29 08:05:31;;;;;;;;;;;10.10;99.90;;;;;;5095063;28;20177;-83
2022/11/29 08:07:58;;;;;;;;;;;10.10;99.90;;;;;;5094963;28;19919;-83
2022/11/29 08:10:23;;;;;;;;;;;10.10;99.90;;;;;;5095161;28;19908;-83
2022/11/29 08:12:49;;;;;;;;;;;10.10;99.90;;;;;;5094933;28;19915;-84
2022/11/29 08:15:19;;;;;;;;;;;10.10;99.90;;;;;;5096113;28;19948;-83
2022/11/29 08:17:45;;;;;;;;;;;10.10;99.90;;;;;;5094932;28;19961;-83
2022/11/29 08:20:11;;;;;;;;;;;10.00;99.90;;;;;;5096193;28;19908;-83
2022/11/29 08:22:36;;;;;;;;;;;9.90;99.90;;;;;;5095935;28;19951;-85
2022/11/29 08:25:03;;;;;;;;;;;10.00;99.90;;;;;;5094510;28;19915;-84
2022/11/29 08:27:28;;;;;;;;;;;9.80;99.90;;;;;;5094498;28;20278;-83
2022/11/29 08:29:54;;;;;;;;;;;9.90;99.90;;;;;;5095833;28;19915;-83
2022/11/29 08:32:19;;;;;;;;;;;9.90;99.90;;;;;;5094445;28;19998;-84
2022/11/29 08:34:45;;;;;;;;;;;9.90;99.90;;;;;;5094093;28;19909;-84
2022/11/29 08:37:10;;;;;;;;;;;9.80;99.90;;;;;;5095573;28;20009;-83
2022/11/29 08:39:35;;;;;;;;;;;9.80;99.90;;;;;;5094228;28;20292;-83
2022/11/29 08:42:01;;;;;;;;;;;9.80;99.90;;;;;;5094259;28;19908;-84
2022/11/29 08:44:26;;;;;;;;;;;9.80;99.90;;;;;;5093766;28;19908;-84
2022/11/29 08:50:00;;;;;;;;;;;9.80;99.90;;;;;;5094885;28;19919;-84
2022/11/29 08:55:09;;;;;;;;;;;10.10;99.90;;;;;;5095230;28;19958;-84
2022/11/29 08:57:34;;;;;;;;;;;10.10;99.90;;;;;;5095156;28;19908;-84
2022/11/29 09:00:00;;;;;;;;;;;10.20;99.90;;;;;;5093518;28;19915;-84
2022/11/29 09:02:25;;;;;;;;;;;10.10;99.90;;;;;;5093121;28;19943;-84
2022/11/29 09:04:51;;;;;;;;;;;10.10;99.90;;;;;;5092480;28;19909;-84
2022/11/29 09:07:16;;;;;;;;;;;10.20;99.90;;;;;;5093208;28;19912;-84
2022/11/29 09:09:42;;;;;;;;;;;10.30;99.90;;;;;;5093376;28;19918;-83
2022/11/29 09:12:07;;;;;;;;;;;10.40;99.90;;;;;;5094929;28;20378;-83
2022/11/29 09:14:33;;;;;;;;;;;10.40;99.90;;;;;;5095515;28;19924;-84
2022/11/29 09:16:59;;;;;;;;;;;10.50;99.90;;;;;;5093626;28;19919;-85
2022/11/29 09:19:25;;;;;;;;;;;10.50;99.90;;;;;;5094780;28;19908;-85
2022/11/29 09:21:50;;;;;;;;;;;10.50;99.90;;;;;;5093399;28;19908;-84
2022/11/29 09:24:17;;;;;;;;;;;10.40;99.90;;;;;;5094374;28;19909;-84
2022/11/29 09:26:46;;;;;;;;;;;10.40;99.90;;;;;;5094962;28;19908;-84
2022/11/29 09:29:13;;;;;;;;;;;10.50;99.90;;;;;;5093482;28;19912;-84
2022/11/29 09:31:38;;;;;;;;;;;10.60;99.90;;;;;;5094680;28;19919;-84
2022/11/29 09:34:04;;;;;;;;;;;10.60;99.90;;;;;;5093587;28;19908;-84
2022/11/29 09:36:29;;;;;;;;;;;10.50;99.90;;;;;;5093602;28;19958;-84
2022/11/29 09:39:01;;;;;;;;;;;10.60;99.90;;;;;;5093531;28;20008;-84
2022/11/29 09:41:45;;;;;;;;;;;10.70;99.90;;;;;;5094262;28;20341;-84
2022/11/29 09:44:21;;;;;;;;;;;10.80;99.90;;;;;;5093368;28;19939;-84
2022/11/29 09:46:52;;;;;;;;;;;10.80;99.90;;;;;;5094612;28;19911;-84
2022/11/29 09:49:30;;;;;;;;;;;10.80;99.90;;;;;;5092844;28;19959;-84
2022/11/29 09:51:58;;;;;;;;;;;10.90;99.90;;;;;;5095022;28;19912;-84
2022/11/29 09:54:43;;;;;;;;;;;10.90;99.90;;;;;;5094463;28;19908;-84
2022/11/29 09:57:09;;;;;;;;;;;11.00;99.90;;;;;;5093475;28;20432;-84
2022/11/29 09:59:44;;;;;;;;;;;10.90;99.90;;;;;;5094933;28;20198;-84
2022/11/29 10:02:15;;;;;;;;;;;10.90;99.90;;;;;;5094683;28;19908;-85
2022/11/29 10:04:44;;;;;;;;;;;11.00;99.90;;;;;;5093420;28;19908;-85
2022/11/29 10:07:26;;;;;;;;;;;11.00;99.90;;;;;;5095289;28;19947;-84
2022/11/29 10:09:56;;;;;;;;;;;10.90;99.90;;;;;;5095735;28;19948;-84
2022/11/29 10:12:33;;;;;;;;;;;11.00;99.90;;;;;;5094888;28;19908;-83
2022/11/29 10:15:04;;;;;;;;;;;10.90;99.90;;;;;;5093154;28;19999;-85
2022/11/29 10:17:32;;;;;;;;;;;11.00;99.90;;;;;;5092571;28;19915;-84
2022/11/29 10:20:10;;;;;;;;;;;11.10;99.90;;;;;;5093494;28;19908;-84
2022/11/29 10:22:35;;;;;;;;;;;11.20;99.90;;;;;;5094364;28;19940;-84
2022/11/29 10:25:01;;;;;;;;;;;11.30;99.90;;;;;;5092946;28;20366;-84
2022/11/29 10:27:28;;;;;;;;;;;11.30;99.90;;;;;;5095188;28;20273;-84
2022/11/29 10:29:54;;;;;;;;;;;11.30;99.90;;;;;;5093309;28;19912;-84
2022/11/29 10:32:22;;;;;;;;;;;11.40;99.90;;;;;;5093022;28;20289;-85
2022/11/29 10:34:48;;;;;;;;;;;11.60;99.90;;;;;;5092397;28;19915;-84
2022/11/29 10:37:18;;;;;;;;;;;11.70;99.90;;;;;;5094572;28;19908;-83
2022/11/29 10:39:51;;;;;;;;;;;11.60;99.90;;;;;;5089253;28;19912;-82
2022/11/29 10:45:04;;;;;;;;;;;11.70;99.90;;;;;;5088204;28;20002;-83
2022/11/29 10:47:30;;;;;;;;;;;11.70;99.90;;;;;;5079477;28;19934;-85
2022/11/29 10:49:57;;;;;;;;;;;11.80;99.90;;;;;;5088286;28;20026;-84
2022/11/29 10:52:23;;;;;;;;;;;11.90;99.90;;;;;;5083254;28;19924;-84
2022/11/29 10:54:49;;;;;;;;;;;11.90;99.90;;;;;;5092806;28;19912;-84
2022/11/29 10:57:17;;;;;;;;;;;11.90;99.90;;;;;;5090258;28;19915;-84
2022/11/29 10:59:58;;;;;;;;;;;12.10;99.90;;;;;;5092164;28;19908;-84
2022/11/29 11:02:23;;;;;;;;;;;12.10;99.90;;;;;;5091791;28;19908;-84
2022/11/29 11:04:49;;;;;;;;;;;12.10;99.90;;;;;;5093491;28;19909;-85
2022/11/29 11:07:26;;;;;;;;;;;12.00;99.90;;;;;;5091718;28;19919;-83
2022/11/29 11:09:54;;;;;;;;;;;12.00;99.90;;;;;;5091671;28;19920;-84
2022/11/29 11:12:21;;;;;;;;;;;12.00;99.90;;;;;;5090917;28;19908;-84
2022/11/29 11:14:47;;;;;;;;;;;12.00;99.90;;;;;;5090462;28;20490;-84
2022/11/29 11:17:36;;;;;;;;;;;12.00;99.90;;;;;;5092194;28;19912;-84
2022/11/29 11:20:04;;;;;;;;;;;11.90;99.90;;;;;;5091066;28;19999;-84
2022/11/29 11:22:31;;;;;;;;;;;12.00;99.90;;;;;;5090520;28;19916;-83
2022/11/29 11:24:59;;;;;;;;;;;12.00;99.90;;;;;;5092261;28;19915;-84
2022/11/29 11:27:32;;;;;;;;;;;11.90;99.90;;;;;;5090436;28;19908;-84
2022/11/29 11:29:59;;;;;;;;;;;12.00;99.90;;;;;;5094384;28;20015;-84
2022/11/29 11:32:24;;;;;;;;;;;12.10;99.90;;;;;;5094635;28;20353;-84
2022/11/29 11:34:52;;;;;;;;;;;12.10;99.90;;;;;;5095143;28;19915;-83
2022/11/29 11:37:19;;;;;;;;;;;12.20;99.90;;;;;;5095998;28;20361;-84
2022/11/29 11:39:46;;;;;;;;;;;12.20;99.90;;;;;;5094444;28;19950;-84
2022/11/29 11:44:58;;;;;;;;;;;12.00;99.90;;;;;;5091074;28;20305;-85
2022/11/29 11:47:28;;;;;;;;;;;11.90;99.90;;;;;;5074179;28;19909;-84
2022/11/29 11:50:03;;;;;;;;;;;11.70;99.90;;;;;;5075330;28;19939;-85
2022/11/29 11:52:34;;;;;;;;;;;11.70;99.90;;;;;;5073463;28;19920;-84
2022/11/29 11:55:01;;;;;;;;;;;11.50;99.90;;;;;;5074268;28;19909;-84
2022/11/29 11:57:27;;;;;;;;;;;11.40;99.90;;;;;;5074040;28;19909;-84
2022/11/29 11:59:54;;;;;;;;;;;11.30;99.90;;;;;;5075072;28;19909;-84
2022/11/29 12:02:39;;;;;;;;;;;11.30;99.90;;;;;;5074798;28;20328;-84
2022/11/29 12:05:12;;;;;;;;;;;11.30;99.90;;;;;;5073523;28;19915;-86
2022/11/29 12:07:49;;;;;;;;;;;11.30;99.90;;;;;;5073800;28;19918;-82
2022/11/29 12:10:16;;;;;;;;;;;11.30;99.90;;;;;;5073844;28;19913;-83
2022/11/29 12:12:42;;;;;;;;;;;11.30;99.90;;;;;;5073579;28;19995;-83
2022/11/29 12:15:15;;;;;;;;;;;11.30;99.90;;;;;;5073354;28;20369;-83
2022/11/29 12:18:00;;;;;;;;;;;11.30;99.90;;;;;;5074016;28;19931;-84
2022/11/29 12:20:32;;;;;;;;;;;11.20;99.90;;;;;;5074410;28;19915;-83
2022/11/29 12:23:10;;;;;;;;;;;11.10;99.90;;;;;;5073260;28;19930;-84
2022/11/29 12:25:44;;;;;;;;;;;11.20;99.90;;;;;;5073615;28;20289;-86
2022/11/29 12:28:11;;;;;;;;;;;11.20;99.90;;;;;;5074632;28;19913;-88
2022/11/29 12:30:39;;;;;;;;;;;11.20;99.90;;;;;;5073504;28;19934;-87
2022/11/29 12:33:11;;;;;;;;;;;11.20;99.90;;;;;;5073380;28;20290;-86
2022/11/29 12:35:56;;;;;;;;;;;11.30;99.90;;;;;;5073662;28;19915;-86
2022/11/29 12:38:28;;;;;;;;;;;11.40;99.90;;;;;;5073539;28;19908;-86
2022/11/29 12:40:59;;;;;;;;;;;11.40;99.90;;;;;;5072989;28;20003;-87
2022/11/29 12:43:37;;;;;;;;;;;11.40;99.90;;;;;;5073468;28;19912;-86
2022/11/29 12:46:07;;;;;;;;;;;11.40;99.90;;;;;;5073263;28;19909;-86
2022/11/29 12:48:39;;;;;;;;;;;11.30;99.90;;;;;;5073418;28;20293;-87
2022/11/29 12:51:13;;;;;;;;;;;11.20;99.90;;;;;;5073108;28;20391;-86
2022/11/29 12:53:59;;;;;;;;;;;11.20;99.90;;;;;;5072960;28;20005;-86
2022/11/29 12:56:26;;;;;;;;;;;11.20;99.90;;;;;;5072398;28;19920;-86
2022/11/29 12:58:52;;;;;;;;;;;11.20;99.90;;;;;;5073101;28;19936;-87
2022/11/29 13:01:28;;;;;;;;;;;11.30;99.90;;;;;;5073032;28;19916;-88
2022/11/29 13:03:56;;;;;;;;;;;11.40;99.90;;;;;;5073063;28;20015;-87
2022/11/29 13:06:28;;;;;;;;;;;11.40;99.90;;;;;;5074224;28;20413;-88
2022/11/29 13:09:02;;;;;;;;;;;11.50;99.90;;;;;;5073065;28;20431;-87
2022/11/29 13:11:30;;;;;;;;;;;11.50;99.90;;;;;;5073873;28;19920;-88
2022/11/29 13:14:14;;;;;;;;;;;11.60;99.90;;;;;;5072734;28;19908;-87
2022/11/29 13:16:48;;;;;;;;;;;11.60;99.90;;;;;;5072338;28;19909;-87
2022/11/29 13:19:29;;;;;;;;;;;11.60;99.90;;;;;;5074064;28;19955;-86
2022/11/29 13:22:00;;;;;;;;;;;11.60;99.90;;;;;;5072248;28;19932;-87
2022/11/29 13:24:36;;;;;;;;;;;11.50;99.90;;;;;;5072712;28;19913;-85
2022/11/29 13:27:03;;;;;;;;;;;11.60;99.90;;;;;;5072464;28;20297;-87
2022/11/29 13:29:28;;;;;;;;;;;11.50;99.90;;;;;;5072303;28;19916;-87
2022/11/29 13:31:54;;;;;;;;;;;11.40;99.90;;;;;;5086293;28;19915;-85
2022/11/29 13:34:22;;;;;;;;;;;11.40;99.90;;;;;;5092718;28;19912;-85
2022/11/29 13:36:51;;;;;;;;;;;11.40;99.90;;;;;;5094218;28;20435;-86
2022/11/29 13:39:22;;;;;;;;;;;11.40;99.90;;;;;;5092488;28;19908;-85
2022/11/29 13:41:56;;;;;;;;;;;11.40;99.90;;;;;;5091702;28;19912;-83
2022/11/29 13:44:33;;;;;;;;;;;11.50;99.90;;;;;;5093664;28;19908;-82
2022/11/29 13:46:58;;;;;;;;;;;11.60;99.90;;;;;;5093533;28;19912;-85
2022/11/29 13:49:43;;;;;;;;;;;11.60;99.90;;;;;;5092558;28;20315;-84
2022/11/29 13:52:20;;;;;;;;;;;11.60;99.90;;;;;;5091698;28;19920;-85
2022/11/29 13:54:46;;;;;;;;;;;11.60;99.90;;;;;;5091920;28;19954;-84
2022/11/29 13:57:11;;;;;;;;;;;11.60;99.90;;;;;;5091793;28;19912;-86
2022/11/29 13:59:37;;;;;;;;;;;11.60;99.90;;;;;;5092245;28;19998;-87
2022/11/29 14:02:23;;;;;;;;;;;11.60;99.90;;;;;;5091547;28;20011;-85
2022/11/29 14:04:48;;;;;;;;;;;11.60;99.90;;;;;;5091558;28;19919;-84
2022/11/29 14:07:18;;;;;;;;;;;11.50;99.90;;;;;;5092932;28;19991;-83
2022/11/29 14:09:43;;;;;;;;;;;11.50;99.90;;;;;;5098934;22;19924;-84
2022/11/29 14:12:34;;;;;;;;;;;11.30;99.90;;;;;;5071146;28;19915;-84
2022/11/29 14:15:15;;;;;;;;;;;11.30;99.90;;;;;;5060835;28;19909;-83
2022/11/29 14:17:50;;;;;;;;;;;11.20;99.90;;;;;;5051917;28;19909;-84
2022/11/29 14:20:22;;;;;;;;;;;11.20;99.90;;;;;;5040800;28;19915;-84
2022/11/29 14:23:10;;;;;;;;;;;11.10;99.90;;;;;;5034361;28;19909;-84
2022/11/29 14:25:56;;;;;;;;;;;11.10;99.90;;;;;;5022267;28;19916;-84
2022/11/29 14:28:21;;;;;;;;;;;11.10;99.90;;;;;;5019187;28;19963;-84
2022/11/29 14:30:51;;;;;;;;;;;10.90;99.90;;;;;;5033506;28;20374;-84
2022/11/29 14:33:18;;;;;;;;;;;10.80;99.90;;;;;;5031865;28;20386;-85
2022/11/29 14:36:01;;;;;;;;;;;10.80;99.90;;;;;;5032460;28;19913;-84
2022/11/29 14:38:33;;;;;;;;;;;10.70;99.90;;;;;;5048820;28;20368;-86
2022/11/29 14:41:05;;;;;;;;;;;10.70;99.90;;;;;;5051566;28;20381;-84
2022/11/29 14:43:30;;;;;;;;;;;10.70;99.90;;;;;;5052773;28;19915;-84
2022/11/29 14:46:05;;;;;;;;;;;10.70;99.90;;;;;;5051717;28;19909;-84
2022/11/29 14:48:31;;;;;;;;;;;10.80;99.90;;;;;;5052915;28;20285;-83
2022/11/29 14:51:13;;;;;;;;;;;10.80;99.90;;;;;;5041104;28;19943;-84
2022/11/29 14:53:39;;;;;;;;;;;10.80;99.90;;;;;;5031453;28;19916;-83
2022/11/29 14:56:24;;;;;;;;;;;10.80;99.90;;;;;;5031417;28;19916;-83
2022/11/29 14:59:08;;;;;;;;;;;10.70;99.90;;;;;;5033082;28;19909;-84